Time;durP1;ratioP1;P1;durP2;ratioP2;P2;SDS_P1;SDS_P2;PMS_P1;PMS_P2;Temp;Humidity;BMP_temperature;BMP_pressure;BME280_temperature;BME280_humidity;BME280_pressure;Samples;Min_cycle;Max_cycle;Signal;HPM_P1;HPM_P2
2023/09/25 00:02:07;;;;;;;5.73;2.53;;;;;;;;;;5117585;28;20250;-71
2023/09/25 00:04:33;;;;;;;4.00;2.30;;;;;;;;;;5117579;28;20261;-70
2023/09/25 00:06:59;;;;;;;6.50;2.35;;;;;;;;;;5118244;28;20016;-71
2023/09/25 00:09:26;;;;;;;6.03;2.40;;;;;;;;;;5100647;28;20015;-71
2023/09/25 00:11:51;;;;;;;4.47;1.95;;;;;;;;;;5117551;28;20050;-70
2023/09/25 00:14:16;;;;;;;6.87;2.30;;;;;;;;;;5101108;28;20004;-70
2023/09/25 00:16:41;;;;;;;4.97;2.67;;;;;;;;;;5118679;28;20283;-71
2023/09/25 00:19:06;;;;;;;6.30;2.20;;;;;;;;;;5118313;28;20057;-71
2023/09/25 00:21:31;;;;;;;6.87;2.23;;;;;;;;;;5104177;28;20298;-71
2023/09/25 00:23:57;;;;;;;4.17;2.30;;;;;;;;;;5099178;28;20604;-71
2023/09/25 00:26:22;;;;;;;3.90;2.20;;;;;;;;;;5097998;28;20273;-71
2023/09/25 00:28:47;;;;;;;4.35;2.17;;;;;;;;;;5096933;28;20016;-71
2023/09/25 00:31:12;;;;;;;5.05;2.55;;;;;;;;;;5097127;28;20016;-71
2023/09/25 00:33:38;;;;;;;4.57;2.38;;;;;;;;;;5078960;28;20042;-71
2023/09/25 00:36:03;;;;;;;4.50;2.17;;;;;;;;;;5096197;28;20384;-71
2023/09/25 00:38:28;;;;;;;6.10;2.33;;;;;;;;;;5077073;28;20258;-71
2023/09/25 00:40:54;;;;;;;5.93;2.37;;;;;;;;;;5094828;28;20468;-71
2023/09/25 00:43:19;;;;;;;5.90;2.15;;;;;;;;;;5075820;28;20365;-71
2023/09/25 00:45:45;;;;;;;3.63;2.08;;;;;;;;;;5094231;28;20016;-71
2023/09/25 00:48:16;;;;;;;3.47;2.30;;;;;;;;;;5076315;28;20027;-71
2023/09/25 00:50:41;;;;;;;6.88;2.40;;;;;;;;;;5094178;28;20537;-71
2023/09/25 00:53:09;;;;;;;3.88;2.20;;;;;;;;;;5093389;28;20020;-71
2023/09/25 00:55:34;;;;;;;6.25;2.30;;;;;;;;;;5075052;28;20016;-71
2023/09/25 00:58:00;;;;;;;5.72;2.20;;;;;;;;;;5077553;28;20146;-71
2023/09/25 01:00:25;;;;;;;5.75;3.17;;;;;;;;;;5096926;28;20035;-71
2023/09/25 01:02:50;;;;;;;3.40;2.05;;;;;;;;;;5097007;28;20028;-71
2023/09/25 01:05:16;;;;;;;6.27;2.20;;;;;;;;;;5078728;28;20031;-71
2023/09/25 01:07:41;;;;;;;7.28;2.35;;;;;;;;;;5078417;28;20277;-71
2023/09/25 01:10:09;;;;;;;3.45;2.20;;;;;;;;;;5096412;28;20039;-71
2023/09/25 01:12:35;;;;;;;3.20;2.10;;;;;;;;;;5078502;28;20421;-71
2023/09/25 01:15:00;;;;;;;5.93;2.65;;;;;;;;;;5078411;28;20020;-71
2023/09/25 01:17:26;;;;;;;4.68;2.22;;;;;;;;;;5096446;28;20459;-71
2023/09/25 01:19:51;;;;;;;3.27;2.10;;;;;;;;;;5096212;28;20467;-71
2023/09/25 01:22:16;;;;;;;4.77;2.30;;;;;;;;;;5078118;28;20265;-71
2023/09/25 01:24:41;;;;;;;5.47;2.30;;;;;;;;;;5096195;28;20419;-71
2023/09/25 01:27:06;;;;;;;3.65;2.05;;;;;;;;;;5078043;28;20274;-71
2023/09/25 01:29:32;;;;;;;4.97;2.27;;;;;;;;;;5095984;28;20106;-71
2023/09/25 01:31:57;;;;;;;5.28;2.40;;;;;;;;;;5096241;28;20266;-71
2023/09/25 01:34:23;;;;;;;7.17;2.53;;;;;;;;;;5077948;28;20498;-71
2023/09/25 01:36:48;;;;;;;7.05;2.30;;;;;;;;;;5077972;28;20262;-71
2023/09/25 01:39:14;;;;;;;6.03;2.30;;;;;;;;;;5095702;28;20016;-71
2023/09/25 01:41:40;;;;;;;3.47;2.03;;;;;;;;;;5096111;28;20024;-71
2023/09/25 01:44:05;;;;;;;6.28;2.17;;;;;;;;;;5077577;28;20386;-71
2023/09/25 01:46:30;;;;;;;4.90;2.20;;;;;;;;;;5095779;28;20396;-71
2023/09/25 01:48:55;;;;;;;5.18;2.22;;;;;;;;;;5095634;28;20027;-68
2023/09/25 01:51:20;;;;;;;4.90;2.00;;;;;;;;;;5095578;28;20103;-68
2023/09/25 01:53:46;;;;;;;5.00;2.13;;;;;;;;;;5077298;28;20311;-68
2023/09/25 01:56:12;;;;;;;4.05;2.10;;;;;;;;;;5077201;28;20269;-69
2023/09/25 01:58:37;;;;;;;4.97;2.40;;;;;;;;;;5077150;28;20077;-68
2023/09/25 02:01:02;;;;;;;7.55;2.10;;;;;;;;;;5077077;28;20433;-68
2023/09/25 02:03:27;;;;;;;7.30;2.50;;;;;;;;;;5095243;28;20109;-68
2023/09/25 02:05:55;;;;;;;5.97;2.20;;;;;;;;;;5095203;28;20348;-69
2023/09/25 02:08:21;;;;;;;4.20;2.22;;;;;;;;;;5094815;28;20614;-69
2023/09/25 02:10:46;;;;;;;7.43;2.30;;;;;;;;;;5094957;28;20101;-68
2023/09/25 02:13:11;;;;;;;4.20;1.95;;;;;;;;;;5095025;28;20297;-68
2023/09/25 02:15:36;;;;;;;4.97;2.20;;;;;;;;;;5076855;28;20016;-68
2023/09/25 02:18:03;;;;;;;5.20;2.03;;;;;;;;;;5095070;28;20104;-67
2023/09/25 02:20:28;;;;;;;6.70;1.92;;;;;;;;;;5076791;28;20284;-67
2023/09/25 02:22:53;;;;;;;4.05;2.20;;;;;;;;;;5076719;28;20016;-67
2023/09/25 02:25:18;;;;;;;4.73;2.27;;;;;;;;;;5094846;28;20028;-67
2023/09/25 02:27:43;;;;;;;13.30;2.30;;;;;;;;;;5094949;28;20270;-67
2023/09/25 02:30:09;;;;;;;4.03;2.28;;;;;;;;;;5094931;28;20371;-68
2023/09/25 02:32:35;;;;;;;3.80;2.30;;;;;;;;;;5076584;28;20027;-67
2023/09/25 02:35:00;;;;;;;4.28;2.40;;;;;;;;;;5094775;28;20012;-68
2023/09/25 02:37:26;;;;;;;4.30;2.10;;;;;;;;;;5094618;28;20085;-68
2023/09/25 02:39:51;;;;;;;4.97;2.20;;;;;;;;;;5076316;28;20047;-69
2023/09/25 02:42:16;;;;;;;4.20;2.10;;;;;;;;;;5094477;28;20390;-68
2023/09/25 02:44:41;;;;;;;5.10;2.30;;;;;;;;;;5094524;28;20051;-68
2023/09/25 02:47:06;;;;;;;4.37;2.23;;;;;;;;;;5076252;28;20262;-69
2023/09/25 02:49:32;;;;;;;4.35;2.03;;;;;;;;;;5094270;28;20308;-68
2023/09/25 02:51:57;;;;;;;5.47;2.17;;;;;;;;;;5076225;28;20471;-68
2023/09/25 02:54:22;;;;;;;3.77;2.33;;;;;;;;;;5094267;28;20273;-68
2023/09/25 02:56:48;;;;;;;3.87;2.00;;;;;;;;;;5094175;28;20298;-68
2023/09/25 02:59:13;;;;;;;4.38;2.13;;;;;;;;;;5075988;28;20254;-68
2023/09/25 03:01:38;;;;;;;9.45;2.60;;;;;;;;;;5094299;28;20054;-68
2023/09/25 03:04:03;;;;;;;5.63;2.13;;;;;;;;;;5094125;28;20466;-68
2023/09/25 03:06:29;;;;;;;3.65;2.05;;;;;;;;;;5094064;28;20082;-68
2023/09/25 03:08:54;;;;;;;4.87;2.20;;;;;;;;;;5075735;28;20104;-68
2023/09/25 03:11:19;;;;;;;4.70;2.10;;;;;;;;;;5093781;28;20704;-68
2023/09/25 03:13:44;;;;;;;4.57;2.08;;;;;;;;;;5094014;28;20115;-68
2023/09/25 03:16:14;;;;;;;7.83;2.07;;;;;;;;;;5093971;28;20031;-68
2023/09/25 03:18:39;;;;;;;4.13;2.30;;;;;;;;;;5075797;28;20266;-68
2023/09/25 03:21:10;;;;;;;13.10;2.58;;;;;;;;;;5093150;28;20375;-68
2023/09/25 03:23:35;;;;;;;4.13;2.30;;;;;;;;;;5075586;28;20058;-68
2023/09/25 03:26:00;;;;;;;3.90;2.13;;;;;;;;;;5093844;28;20383;-68
2023/09/25 03:28:25;;;;;;;5.67;2.70;;;;;;;;;;5075388;28;20293;-70
2023/09/25 03:30:51;;;;;;;5.97;2.30;;;;;;;;;;5093644;28;20567;-68
2023/09/25 03:33:16;;;;;;;4.53;2.30;;;;;;;;;;5075470;28;20261;-68
2023/09/25 03:35:41;;;;;;;5.07;2.47;;;;;;;;;;5075532;28;20481;-67
2023/09/25 03:38:08;;;;;;;6.32;2.38;;;;;;;;;;5093690;28;20016;-68
2023/09/25 03:40:33;;;;;;;6.20;2.33;;;;;;;;;;5093540;28;20048;-68
2023/09/25 03:42:59;;;;;;;4.53;2.33;;;;;;;;;;5075344;28;20108;-67
2023/09/25 03:45:24;;;;;;;5.53;2.75;;;;;;;;;;5093602;28;20020;-68
2023/09/25 03:47:49;;;;;;;7.47;2.22;;;;;;;;;;5093333;28;20023;-67
2023/09/25 03:50:14;;;;;;;3.47;2.20;;;;;;;;;;5093309;28;20463;-68
2023/09/25 03:52:39;;;;;;;3.63;2.30;;;;;;;;;;5075328;28;20323;-67
2023/09/25 03:55:05;;;;;;;5.00;2.28;;;;;;;;;;5093565;28;20329;-67
2023/09/25 03:57:30;;;;;;;5.35;2.25;;;;;;;;;;5075211;28;20020;-68
2023/09/25 03:59:55;;;;;;;5.38;2.47;;;;;;;;;;5093432;28;20012;-68
2023/09/25 04:02:20;;;;;;;4.03;2.20;;;;;;;;;;5093171;28;20028;-68
2023/09/25 04:04:46;;;;;;;5.72;2.50;;;;;;;;;;5075112;28;20114;-68
2023/09/25 04:07:11;;;;;;;5.28;2.67;;;;;;;;;;5093354;28;20115;-67
2023/09/25 04:09:36;;;;;;;4.27;2.47;;;;;;;;;;5074924;28;20031;-68
2023/09/25 04:12:01;;;;;;;4.33;2.33;;;;;;;;;;5093191;28;20824;-67
2023/09/25 04:14:28;;;;;;;5.77;2.50;;;;;;;;;;5093248;28;20313;-68
2023/09/25 04:16:54;;;;;;;6.70;2.38;;;;;;;;;;5074972;28;20776;-67
2023/09/25 04:19:20;;;;;;;3.80;2.35;;;;;;;;;;5075081;28;20016;-67
2023/09/25 04:21:47;;;;;;;5.28;2.33;;;;;;;;;;5093087;28;20023;-68
2023/09/25 04:24:13;;;;;;;5.50;2.30;;;;;;;;;;5093167;28;20013;-67
2023/09/25 04:26:39;;;;;;;3.97;2.13;;;;;;;;;;5093034;28;20391;-67
2023/09/25 04:29:05;;;;;;;4.82;2.28;;;;;;;;;;5092928;28;20024;-67
2023/09/25 04:31:30;;;;;;;5.68;2.30;;;;;;;;;;5094457;28;20012;-67
2023/09/25 04:33:56;;;;;;;4.18;2.25;;;;;;;;;;5078804;28;20035;-67
2023/09/25 04:36:23;;;;;;;6.03;2.38;;;;;;;;;;5097057;28;20039;-67
2023/09/25 04:38:48;;;;;;;4.63;2.25;;;;;;;;;;5096937;28;20024;-68
2023/09/25 04:41:13;;;;;;;5.88;2.22;;;;;;;;;;5078713;28;20408;-67
2023/09/25 04:43:39;;;;;;;4.53;2.42;;;;;;;;;;5096837;28;20471;-70
2023/09/25 04:46:04;;;;;;;6.27;2.27;;;;;;;;;;5096423;28;20019;-70
2023/09/25 04:48:29;;;;;;;4.32;2.40;;;;;;;;;;5097184;28;20319;-70
2023/09/25 04:50:55;;;;;;;5.97;2.30;;;;;;;;;;5096750;28;20008;-71
2023/09/25 04:53:20;;;;;;;7.53;2.60;;;;;;;;;;5078482;28;20104;-71
2023/09/25 04:55:45;;;;;;;7.72;2.10;;;;;;;;;;5096578;28;20020;-71
2023/09/25 04:58:10;;;;;;;4.30;2.37;;;;;;;;;;5096645;28;20490;-70
2023/09/25 05:00:36;;;;;;;4.55;2.35;;;;;;;;;;5096573;28;20278;-70
2023/09/25 05:03:01;;;;;;;7.27;2.30;;;;;;;;;;5078256;28;20031;-71
2023/09/25 05:05:26;;;;;;;5.13;2.28;;;;;;;;;;5096449;28;20266;-70
2023/09/25 05:07:52;;;;;;;5.40;2.40;;;;;;;;;;5078315;28;20479;-71
2023/09/25 05:10:19;;;;;;;5.72;2.60;;;;;;;;;;5095858;28;20048;-71
2023/09/25 05:12:44;;;;;;;5.15;2.50;;;;;;;;;;5096476;28;20091;-71
2023/09/25 05:15:10;;;;;;;4.88;2.40;;;;;;;;;;5078172;28;20043;-71
2023/09/25 05:17:36;;;;;;;7.00;2.35;;;;;;;;;;5096116;28;20005;-71
2023/09/25 05:20:05;;;;;;;7.10;2.30;;;;;;;;;;5096171;28;20107;-71
2023/09/25 05:22:30;;;;;;;5.30;2.22;;;;;;;;;;5096126;28;20182;-71
2023/09/25 05:24:55;;;;;;;5.80;2.50;;;;;;;;;;5096036;28;20079;-71
2023/09/25 05:27:21;;;;;;;5.88;2.10;;;;;;;;;;5096044;28;20318;-71
2023/09/25 05:29:46;;;;;;;9.35;2.47;;;;;;;;;;5095965;28;20103;-71
2023/09/25 05:32:11;;;;;;;6.20;2.30;;;;;;;;;;5077807;28;20023;-71
2023/09/25 05:34:36;;;;;;;5.83;2.30;;;;;;;;;;5077680;28;20467;-71
2023/09/25 05:37:03;;;;;;;4.80;2.37;;;;;;;;;;5095954;28;20369;-71
2023/09/25 05:39:28;;;;;;;5.82;2.35;;;;;;;;;;5094319;28;20630;-71
2023/09/25 05:41:53;;;;;;;7.53;2.70;;;;;;;;;;5095799;28;20028;-70
2023/09/25 05:44:18;;;;;;;4.68;2.40;;;;;;;;;;5076918;28;20051;-71
2023/09/25 05:46:44;;;;;;;6.60;2.63;;;;;;;;;;5095603;28;20051;-70
2023/09/25 05:49:09;;;;;;;5.00;2.43;;;;;;;;;;5095683;28;20288;-71
2023/09/25 05:51:34;;;;;;;7.82;2.42;;;;;;;;;;5077323;28;20257;-69
2023/09/25 05:54:00;;;;;;;5.15;2.30;;;;;;;;;;5095542;28;20020;-69
2023/09/25 05:56:25;;;;;;;7.97;2.60;;;;;;;;;;5077460;28;20474;-70
2023/09/25 05:58:52;;;;;;;7.53;2.60;;;;;;;;;;5077211;28;20035;-70
2023/09/25 06:01:18;;;;;;;5.78;2.63;;;;;;;;;;5095492;28;20095;-70
2023/09/25 06:03:43;;;;;;;6.15;2.55;;;;;;;;;;5095273;28;20416;-70
2023/09/25 06:06:08;;;;;;;8.13;2.10;;;;;;;;;;5095114;28;20095;-70
2023/09/25 06:08:34;;;;;;;5.60;2.63;;;;;;;;;;5077068;28;20024;-70
2023/09/25 06:10:59;;;;;;;6.43;2.30;;;;;;;;;;5095104;28;20032;-68
2023/09/25 06:13:25;;;;;;;7.70;2.40;;;;;;;;;;5095112;28;20262;-70
2023/09/25 06:15:50;;;;;;;4.40;2.37;;;;;;;;;;5095049;28;20022;-74
2023/09/25 06:18:15;;;;;;;8.50;2.37;;;;;;;;;;5095082;28;20756;-75
2023/09/25 06:20:43;;;;;;;4.93;2.10;;;;;;;;;;5095029;28;20283;-75
2023/09/25 06:23:08;;;;;;;9.52;2.47;;;;;;;;;;5094970;28;20741;-74
2023/09/25 06:25:34;;;;;;;4.33;2.20;;;;;;;;;;5094944;28;20099;-72
2023/09/25 06:28:00;;;;;;;4.00;2.28;;;;;;;;;;5094769;28;20269;-76
2023/09/25 06:30:27;;;;;;;5.25;2.22;;;;;;;;;;5095022;28;20024;-75
2023/09/25 06:32:52;;;;;;;5.38;2.65;;;;;;;;;;5076493;28;20020;-76
2023/09/25 06:35:18;;;;;;;4.73;2.33;;;;;;;;;;5094838;28;20054;-74
2023/09/25 06:37:43;;;;;;;4.82;2.47;;;;;;;;;;5076396;28;20617;-75
2023/09/25 06:40:09;;;;;;;4.97;2.40;;;;;;;;;;5094669;28;20016;-74
2023/09/25 06:42:35;;;;;;;4.88;2.30;;;;;;;;;;5079564;28;20273;-75
2023/09/25 06:45:00;;;;;;;6.75;2.50;;;;;;;;;;5095574;28;20020;-74
2023/09/25 06:47:25;;;;;;;9.57;2.37;;;;;;;;;;5076623;28;20016;-75
2023/09/25 06:49:51;;;;;;;4.97;2.13;;;;;;;;;;5076305;28;20376;-74
2023/09/25 06:52:16;;;;;;;4.65;2.10;;;;;;;;;;5096516;28;20016;-75
2023/09/25 06:54:41;;;;;;;5.55;2.40;;;;;;;;;;5094932;28;20024;-74
2023/09/25 06:57:06;;;;;;;4.50;2.22;;;;;;;;;;5101341;28;20008;-73
2023/09/25 06:59:33;;;;;;;5.37;2.40;;;;;;;;;;5083481;28;20030;-73
2023/09/25 07:01:58;;;;;;;5.68;2.38;;;;;;;;;;5112644;28;20266;-75
2023/09/25 07:04:23;;;;;;;6.47;2.70;;;;;;;;;;5104097;28;20031;-74
2023/09/25 07:06:49;;;;;;;5.40;2.37;;;;;;;;;;5113940;28;20261;-74
2023/09/25 07:09:15;;;;;;;5.80;2.28;;;;;;;;;;5115508;28;20277;-74
2023/09/25 07:11:41;;;;;;;7.80;2.35;;;;;;;;;;5098611;28;20207;-74
2023/09/25 07:14:06;;;;;;;6.10;2.53;;;;;;;;;;5094940;28;20024;-75
2023/09/25 07:16:31;;;;;;;6.32;2.13;;;;;;;;;;5078104;28;20463;-74
2023/09/25 07:18:57;;;;;;;3.70;1.90;;;;;;;;;;5096341;28;20030;-74
2023/09/25 07:21:22;;;;;;;4.72;2.28;;;;;;;;;;5095585;28;20258;-73
2023/09/25 07:23:47;;;;;;;4.10;2.30;;;;;;;;;;5095153;28;20467;-73
2023/09/25 07:26:15;;;;;;;4.87;2.30;;;;;;;;;;5100968;28;20016;-74
2023/09/25 07:28:41;;;;;;;4.97;2.53;;;;;;;;;;5088881;28;20008;-75
2023/09/25 07:31:06;;;;;;;5.30;2.58;;;;;;;;;;5086086;28;20045;-73
2023/09/25 07:33:32;;;;;;;4.50;2.30;;;;;;;;;;5097825;28;20024;-74
2023/09/25 07:35:57;;;;;;;5.65;2.10;;;;;;;;;;5094960;28;20262;-74
2023/09/25 07:38:23;;;;;;;4.65;2.45;;;;;;;;;;5095522;28;20091;-75
2023/09/25 07:40:48;;;;;;;4.40;2.10;;;;;;;;;;5093511;28;20016;-74
2023/09/25 07:43:19;;;;;;;6.35;2.60;;;;;;;;;;5093838;28;20250;-74
2023/09/25 07:45:44;;;;;;;5.20;2.40;;;;;;;;;;5093808;28;20467;-74
2023/09/25 07:48:11;;;;;;;5.85;2.13;;;;;;;;;;5096749;28;20034;-74
2023/09/25 07:50:37;;;;;;;7.47;2.30;;;;;;;;;;5094414;28;20108;-73
2023/09/25 07:53:02;;;;;;;5.80;2.50;;;;;;;;;;5077222;28;20052;-74
2023/09/25 07:55:27;;;;;;;8.27;2.33;;;;;;;;;;5076415;28;20123;-73
2023/09/25 07:57:52;;;;;;;3.80;2.23;;;;;;;;;;5096625;28;20009;-74
2023/09/25 08:02:47;;;;;;;7.25;2.33;;;;;;;;;;5094714;28;20031;-74
2023/09/25 08:05:13;;;;;;;4.95;2.50;;;;;;;;;;5077635;28;20054;-75
2023/09/25 08:07:38;;;;;;;6.18;2.70;;;;;;;;;;5104608;28;20047;-74
2023/09/25 08:10:04;;;;;;;5.50;2.20;;;;;;;;;;5101389;28;20047;-74
2023/09/25 08:12:29;;;;;;;8.70;2.40;;;;;;;;;;5088397;28;20380;-74
2023/09/25 08:14:54;;;;;;;3.40;2.20;;;;;;;;;;5098269;28;20016;-74
2023/09/25 08:17:20;;;;;;;4.45;2.05;;;;;;;;;;5098877;28;20468;-74
2023/09/25 08:19:45;;;;;;;4.77;2.33;;;;;;;;;;5099004;28;20379;-74
2023/09/25 08:22:11;;;;;;;6.67;2.20;;;;;;;;;;5099487;28;20726;-75
2023/09/25 08:24:37;;;;;;;4.47;2.15;;;;;;;;;;5100159;28;20419;-75
2023/09/25 08:27:04;;;;;;;4.30;2.50;;;;;;;;;;5098836;28;20099;-74
2023/09/25 08:29:29;;;;;;;3.75;2.25;;;;;;;;;;5097741;28;20053;-75
2023/09/25 08:31:55;;;;;;;4.20;2.27;;;;;;;;;;5099981;28;20035;-74
2023/09/25 08:34:21;;;;;;;7.15;2.50;;;;;;;;;;5080879;28;20042;-75
2023/09/25 08:36:46;;;;;;;7.10;1.95;;;;;;;;;;5097852;28;20016;-74
2023/09/25 08:39:13;;;;;;;14.63;2.55;;;;;;;;;;5078867;28;20557;-74
2023/09/25 08:41:39;;;;;;;5.03;2.17;;;;;;;;;;5117594;22;20124;-31
2023/09/25 08:44:05;;;;;;;4.00;2.10;;;;;;;;;;5056957;28;20016;-30
2023/09/25 08:46:31;;;;;;;6.25;2.38;;;;;;;;;;5056680;28;20489;-30
2023/09/25 08:49:01;;;;;;;6.10;2.40;;;;;;;;;;5056474;28;20059;-30
2023/09/25 08:51:26;;;;;;;5.13;2.20;;;;;;;;;;5056532;28;20023;-31
2023/09/25 08:53:52;;;;;;;6.00;2.20;;;;;;;;;;5056789;28;20057;-31
2023/09/25 08:56:18;;;;;;;4.50;2.00;;;;;;;;;;5056173;28;20455;-31
2023/09/25 08:58:44;;;;;;;5.07;2.40;;;;;;;;;;5056095;28;20371;-31
2023/09/25 09:01:09;;;;;;;4.85;2.13;;;;;;;;;;5055773;28;20024;-31
2023/09/25 09:03:34;;;;;;;5.72;2.10;;;;;;;;;;5056624;28;20079;-31
2023/09/25 09:06:00;;;;;;;5.13;2.10;;;;;;;;;;5056543;28;20014;-31
2023/09/25 09:08:27;;;;;;;4.20;2.00;;;;;;;;;;5056388;28;20017;-31
2023/09/25 09:10:53;;;;;;;5.13;2.17;;;;;;;;;;5056594;28;20083;-31
2023/09/25 09:13:21;;;;;;;8.80;2.00;;;;;;;;;;5056386;28;20044;-31
2023/09/25 09:15:46;;;;;;;3.10;2.00;;;;;;;;;;5056092;28;20021;-31
2023/09/25 09:18:22;;;;;;;6.77;2.10;;;;;;;;;;5055150;28;20535;-31
2023/09/25 09:20:48;;;;;;;7.30;2.55;;;;;;;;;;5056239;28;20023;-30
2023/09/25 09:23:14;;;;;;;6.43;2.25;;;;;;;;;;5056199;28;20020;-31
2023/09/25 09:25:40;;;;;;;5.32;1.95;;;;;;;;;;5056255;28;20070;-31
2023/09/25 09:28:05;;;;;;;5.22;2.13;;;;;;;;;;5055929;28;20459;-39
2023/09/25 09:30:31;;;;;;;6.18;2.25;;;;;;;;;;5056263;28;20025;-31
2023/09/25 09:32:57;;;;;;;6.85;2.25;;;;;;;;;;5056650;28;20412;-30
2023/09/25 09:35:25;;;;;;;4.65;2.40;;;;;;;;;;5056005;28;20071;-31
2023/09/25 09:37:57;;;;;;;4.47;2.30;;;;;;;;;;5055763;28;20020;-31
2023/09/25 09:40:24;;;;;;;6.05;2.40;;;;;;;;;;5056047;28;20399;-31
2023/09/25 09:42:50;;;;;;;9.15;2.33;;;;;;;;;;5055620;28;20080;-30
2023/09/25 09:45:15;;;;;;;4.30;2.20;;;;;;;;;;5055661;28;20017;-31
2023/09/25 09:47:42;;;;;;;7.63;2.53;;;;;;;;;;5055856;28;20092;-31
2023/09/25 09:50:08;;;;;;;6.93;2.10;;;;;;;;;;5056557;28;20024;-31
2023/09/25 09:52:34;;;;;;;3.40;2.10;;;;;;;;;;5055595;28;20017;-31
2023/09/25 09:55:01;;;;;;;5.45;2.05;;;;;;;;;;5055424;28;20013;-30
2023/09/25 09:57:27;;;;;;;4.75;2.35;;;;;;;;;;5054233;28;20040;-31
2023/09/25 09:59:52;;;;;;;5.90;2.47;;;;;;;;;;5055680;28;20021;-31
2023/09/25 10:02:17;;;;;;;4.63;2.33;;;;;;;;;;5055377;28;20422;-31
2023/09/25 10:04:43;;;;;;;5.93;2.33;;;;;;;;;;5054017;28;20025;-30
2023/09/25 10:07:09;;;;;;;6.50;2.40;;;;;;;;;;5055493;28;20475;-31
2023/09/25 10:09:34;;;;;;;7.13;2.37;;;;;;;;;;5055069;28;20025;-31
2023/09/25 10:12:01;;;;;;;4.18;2.13;;;;;;;;;;5055674;28;20017;-31
2023/09/25 10:14:29;;;;;;;5.03;2.20;;;;;;;;;;5053869;28;20028;-31
2023/09/25 10:16:58;;;;;;;5.03;2.33;;;;;;;;;;5055027;28;20021;-31
2023/09/25 10:19:33;;;;;;;8.18;2.58;;;;;;;;;;5055321;28;20025;-31
2023/09/25 10:22:11;;;;;;;6.13;2.45;;;;;;;;;;5037250;28;20032;-31
2023/09/25 10:24:37;;;;;;;6.03;2.47;;;;;;;;;;5054867;28;20025;-31
2023/09/25 10:27:03;;;;;;;4.72;2.40;;;;;;;;;;5054827;28;20070;-31
2023/09/25 10:29:28;;;;;;;6.22;2.50;;;;;;;;;;5054679;28;20471;-31
2023/09/25 10:31:53;;;;;;;6.17;2.40;;;;;;;;;;5053422;28;20556;-31
2023/09/25 10:34:21;;;;;;;4.47;2.50;;;;;;;;;;5054657;28;20350;-31
2023/09/25 10:36:47;;;;;;;4.63;2.60;;;;;;;;;;5055495;28;20256;-31
2023/09/25 10:39:15;;;;;;;6.70;2.40;;;;;;;;;;5054860;28;20021;-31
2023/09/25 10:41:47;;;;;;;7.25;2.58;;;;;;;;;;5054260;28;20048;-31
2023/09/25 10:44:12;;;;;;;4.90;2.50;;;;;;;;;;5054739;28;20455;-31
2023/09/25 10:46:38;;;;;;;4.88;2.28;;;;;;;;;;5055092;28;20225;-31
2023/09/25 10:49:05;;;;;;;8.13;3.15;;;;;;;;;;5055251;28;20051;-31
2023/09/25 10:51:30;;;;;;;3.75;2.13;;;;;;;;;;5054521;28;20378;-31
2023/09/25 10:53:56;;;;;;;7.03;2.50;;;;;;;;;;5054210;28;20016;-31
2023/09/25 10:56:21;;;;;;;7.17;2.67;;;;;;;;;;5054461;28;20021;-31
2023/09/25 10:58:52;;;;;;;8.13;2.50;;;;;;;;;;5052301;28;20578;-31
2023/09/25 11:01:27;;;;;;;6.18;2.60;;;;;;;;;;5053500;28;20009;-31
2023/09/25 11:03:53;;;;;;;5.53;2.30;;;;;;;;;;5051775;28;20134;-31
2023/09/25 11:06:18;;;;;;;5.88;2.50;;;;;;;;;;5051910;28;20099;-32
2023/09/25 11:08:43;;;;;;;6.30;2.25;;;;;;;;;;5052561;28;20020;-31
2023/09/25 11:11:13;;;;;;;6.88;2.70;;;;;;;;;;5053472;28;20013;-32
2023/09/25 11:13:38;;;;;;;5.75;2.58;;;;;;;;;;5053877;28;20425;-32
2023/09/25 11:16:04;;;;;;;5.32;2.55;;;;;;;;;;5053588;28;20106;-32
2023/09/25 11:18:29;;;;;;;7.47;2.50;;;;;;;;;;5052943;28;20023;-32
2023/09/25 11:20:55;;;;;;;7.13;2.33;;;;;;;;;;5051344;28;20043;-32
2023/09/25 11:23:21;;;;;;;4.30;2.40;;;;;;;;;;5051263;28;20279;-31
2023/09/25 11:25:46;;;;;;;5.63;2.47;;;;;;;;;;5051324;28;20020;-32
2023/09/25 11:28:16;;;;;;;5.40;2.72;;;;;;;;;;5051152;28;20259;-32
2023/09/25 11:30:45;;;;;;;4.13;2.20;;;;;;;;;;5051293;28;20068;-31
2023/09/25 11:33:11;;;;;;;7.47;2.28;;;;;;;;;;5051313;28;20108;-32
2023/09/25 11:35:39;;;;;;;5.82;2.58;;;;;;;;;;5065473;22;20084;-73
2023/09/25 11:38:04;;;;;;;7.22;2.20;;;;;;;;;;5051799;28;20016;-73
2023/09/25 11:40:30;;;;;;;4.57;2.30;;;;;;;;;;5051451;28;20331;-73
2023/09/25 11:42:56;;;;;;;6.00;2.35;;;;;;;;;;5051630;28;20021;-73
2023/09/25 11:45:22;;;;;;;7.00;2.70;;;;;;;;;;5051096;28;20044;-73
2023/09/25 11:47:47;;;;;;;5.40;2.28;;;;;;;;;;5053871;28;20017;-74
2023/09/25 11:50:14;;;;;;;5.97;2.47;;;;;;;;;;5053492;28;20069;-73
2023/09/25 11:52:43;;;;;;;6.03;2.40;;;;;;;;;;5053456;28;20044;-76
2023/09/25 11:55:10;;;;;;;6.40;2.35;;;;;;;;;;5052059;28;20013;-76
2023/09/25 11:57:36;;;;;;;6.45;2.30;;;;;;;;;;5053511;28;20067;-76
2023/09/25 12:00:01;;;;;;;5.45;2.45;;;;;;;;;;5053443;28;20361;-76
2023/09/25 12:02:28;;;;;;;7.03;2.50;;;;;;;;;;5053354;28;20121;-77
2023/09/25 12:04:54;;;;;;;4.72;2.33;;;;;;;;;;5051878;28;20318;-76
2023/09/25 12:07:20;;;;;;;9.43;2.70;;;;;;;;;;5051932;28;20464;-77
2023/09/25 12:09:45;;;;;;;5.07;2.78;;;;;;;;;;5054412;28;20518;-77
2023/09/25 12:12:10;;;;;;;5.32;2.40;;;;;;;;;;5054062;28;20021;-77
2023/09/25 12:14:36;;;;;;;6.50;2.30;;;;;;;;;;5058468;28;20383;-76
2023/09/25 12:17:01;;;;;;;6.10;2.33;;;;;;;;;;5052395;28;20028;-76
2023/09/25 12:19:26;;;;;;;8.17;2.80;;;;;;;;;;5052361;28;20032;-75
2023/09/25 12:21:51;;;;;;;8.23;2.90;;;;;;;;;;5054397;28;20487;-76
2023/09/25 12:24:18;;;;;;;6.27;2.60;;;;;;;;;;5053840;28;20029;-75
2023/09/25 12:26:44;;;;;;;4.82;2.42;;;;;;;;;;5053552;28;20031;-76
2023/09/25 12:29:09;;;;;;;9.30;2.40;;;;;;;;;;5054322;28;20516;-77
2023/09/25 12:31:34;;;;;;;7.73;2.70;;;;;;;;;;5053424;28;20104;-76
2023/09/25 12:33:59;;;;;;;6.65;2.50;;;;;;;;;;5052860;28;20021;-76
2023/09/25 12:36:25;;;;;;;5.93;2.58;;;;;;;;;;5051481;28;20033;-76
2023/09/25 12:38:50;;;;;;;7.83;2.80;;;;;;;;;;5051578;28;20013;-76
2023/09/25 12:41:15;;;;;;;7.55;2.63;;;;;;;;;;5051573;28;20305;-76
2023/09/25 12:43:40;;;;;;;6.53;2.67;;;;;;;;;;5052099;28;20291;-76
2023/09/25 12:46:06;;;;;;;4.55;2.70;;;;;;;;;;5051169;28;20072;-75
2023/09/25 12:48:31;;;;;;;7.15;2.47;;;;;;;;;;5050969;28;20048;-76
2023/09/25 12:50:56;;;;;;;6.15;2.80;;;;;;;;;;5049567;28;20032;-76
2023/09/25 12:53:21;;;;;;;7.10;2.70;;;;;;;;;;5053635;28;20017;-75
2023/09/25 12:55:47;;;;;;;5.60;2.27;;;;;;;;;;5055070;28;20021;-75
2023/09/25 12:58:12;;;;;;;6.95;2.55;;;;;;;;;;5055389;28;20096;-75
2023/09/25 13:00:37;;;;;;;6.40;2.67;;;;;;;;;;5054710;28;20104;-75
2023/09/25 13:03:02;;;;;;;6.10;2.70;;;;;;;;;;5056333;28;20361;-77
2023/09/25 13:05:29;;;;;;;5.13;2.60;;;;;;;;;;5054997;28;20017;-76
2023/09/25 13:07:54;;;;;;;5.75;2.70;;;;;;;;;;5056145;28;20017;-76
2023/09/25 13:10:19;;;;;;;8.27;2.60;;;;;;;;;;5054722;28;20029;-76
2023/09/25 13:12:44;;;;;;;6.17;2.70;;;;;;;;;;5056166;28;20437;-76
2023/09/25 13:15:11;;;;;;;6.60;2.40;;;;;;;;;;5056206;28;20035;-77
2023/09/25 13:17:36;;;;;;;5.90;2.55;;;;;;;;;;5054864;28;20028;-76
2023/09/25 13:20:07;;;;;;;8.33;2.50;;;;;;;;;;5056069;28;20027;-76
2023/09/25 13:22:32;;;;;;;5.68;2.50;;;;;;;;;;5054698;28;20279;-78
2023/09/25 13:24:58;;;;;;;7.07;2.78;;;;;;;;;;5054562;28;20017;-76
2023/09/25 13:27:23;;;;;;;7.60;2.83;;;;;;;;;;5055723;28;20100;-76
2023/09/25 13:29:48;;;;;;;4.53;2.90;;;;;;;;;;5054532;28;20088;-76
2023/09/25 13:32:13;;;;;;;6.27;2.50;;;;;;;;;;5054595;28;20021;-76
2023/09/25 13:34:40;;;;;;;7.63;3.00;;;;;;;;;;5055667;28;20288;-76
2023/09/25 13:37:06;;;;;;;6.40;2.78;;;;;;;;;;5055552;28;20020;-75
2023/09/25 13:39:31;;;;;;;10.52;2.95;;;;;;;;;;5054450;28;20108;-70
2023/09/25 13:41:56;;;;;;;7.27;3.13;;;;;;;;;;5055669;28;20092;-71
2023/09/25 13:44:21;;;;;;;6.77;2.80;;;;;;;;;;5055600;28;20023;-70
2023/09/25 13:46:47;;;;;;;12.50;2.67;;;;;;;;;;5054317;28;20036;-70
2023/09/25 13:49:12;;;;;;;8.40;2.78;;;;;;;;;;5055428;28;20431;-71
2023/09/25 13:51:37;;;;;;;6.27;2.67;;;;;;;;;;5055388;28;20017;-70
2023/09/25 13:54:03;;;;;;;4.43;2.60;;;;;;;;;;5055447;28;20021;-70
2023/09/25 13:56:33;;;;;;;5.90;2.83;;;;;;;;;;5055359;28;20449;-70
2023/09/25 13:58:58;;;;;;;5.82;2.78;;;;;;;;;;5053959;28;20392;-70
2023/09/25 14:01:23;;;;;;;8.47;3.00;;;;;;;;;;5055326;28;20021;-71
2023/09/25 14:03:49;;;;;;;8.93;2.90;;;;;;;;;;5054659;28;20048;-71
2023/09/25 14:06:14;;;;;;;7.10;2.80;;;;;;;;;;5053999;28;20025;-71
2023/09/25 14:08:39;;;;;;;5.07;2.70;;;;;;;;;;5054955;28;20021;-71
2023/09/25 14:11:04;;;;;;;9.95;3.10;;;;;;;;;;5055138;28;20032;-71
2023/09/25 14:13:29;;;;;;;7.07;2.80;;;;;;;;;;5055296;28;20013;-71
2023/09/25 14:15:55;;;;;;;8.97;2.93;;;;;;;;;;5053779;28;20295;-70
2023/09/25 14:18:20;;;;;;;7.23;2.80;;;;;;;;;;5053617;28;20381;-71
2023/09/25 14:20:49;;;;;;;9.00;2.97;;;;;;;;;;5054936;28;20078;-70
2023/09/25 14:23:15;;;;;;;7.38;2.72;;;;;;;;;;5053507;28;20028;-70
2023/09/25 14:25:40;;;;;;;7.25;2.92;;;;;;;;;;5054676;28;20029;-71
2023/09/25 14:28:05;;;;;;;10.70;2.83;;;;;;;;;;5053629;28;20480;-70
2023/09/25 14:30:31;;;;;;;7.07;3.20;;;;;;;;;;5054780;28;20333;-70
2023/09/25 14:32:56;;;;;;;10.80;3.00;;;;;;;;;;5054657;28;20472;-70
2023/09/25 14:35:22;;;;;;;7.90;3.03;;;;;;;;;;5054427;28;20045;-70
2023/09/25 14:37:47;;;;;;;11.52;2.85;;;;;;;;;;5053409;28;20510;-71